Time;durP1;ratioP1;P1;durP2;ratioP2;P2;SDS_P1;SDS_P2;PMS_P1;PMS_P2;Temp;Humidity;BMP_temperature;BMP_pressure;BME280_temperature;BME280_humidity;BME280_pressure;Samples;Min_cycle;Max_cycle;Signal;HPM_P1;HPM_P2
2023/04/27 00:02:10;;;;;;;7.20;4.00;;;4.00;99.90;;;;;;5055514;28;20037;-60
2023/04/27 00:04:36;;;;;;;8.93;4.05;;;4.00;99.90;;;;;;5053578;28;20060;-60
2023/04/27 00:07:02;;;;;;;8.30;4.60;;;3.90;99.90;;;;;;5054501;28;20049;-60
2023/04/27 00:09:28;;;;;;;7.65;3.75;;;3.80;99.90;;;;;;5052853;28;20049;-60
2023/04/27 00:11:53;;;;;;;9.98;4.72;;;3.80;99.90;;;;;;5054940;28;20137;-60
2023/04/27 00:14:19;;;;;;;10.90;4.13;;;3.80;99.90;;;;;;5053771;28;20529;-60
2023/04/27 00:16:46;;;;;;;7.03;3.97;;;3.70;99.90;;;;;;5055386;28;20069;-60
2023/04/27 00:19:12;;;;;;;9.00;3.17;;;3.80;99.90;;;;;;5070578;28;20386;-60
2023/04/27 00:21:38;;;;;;;9.00;4.22;;;3.70;99.90;;;;;;5052453;28;20045;-60
2023/04/27 00:24:04;;;;;;;6.15;3.47;;;3.80;99.90;;;;;;5054636;28;20470;-60
2023/04/27 00:26:30;;;;;;;8.88;3.50;;;3.80;99.90;;;;;;5052976;28;20041;-60
2023/04/27 00:28:56;;;;;;;7.55;3.80;;;3.80;99.90;;;;;;5052756;28;20048;-60
2023/04/27 00:31:21;;;;;;;9.27;4.07;;;3.80;99.90;;;;;;5069917;28;20041;-60
2023/04/27 00:33:47;;;;;;;10.05;3.63;;;3.90;99.90;;;;;;5054883;28;20040;-60
2023/04/27 00:36:13;;;;;;;8.60;4.18;;;3.90;99.90;;;;;;5052464;28;20033;-60
2023/04/27 00:38:38;;;;;;;7.53;3.90;;;3.90;99.90;;;;;;5053992;28;20037;-60
2023/04/27 00:41:06;;;;;;;8.57;3.85;;;3.90;99.90;;;;;;5054039;28;20044;-60
2023/04/27 00:43:32;;;;;;;8.98;4.40;;;4.00;99.90;;;;;;5036023;28;20044;-60
2023/04/27 00:45:59;;;;;;;7.03;3.72;;;4.00;99.90;;;;;;5053507;28;20095;-60
2023/04/27 00:48:25;;;;;;;12.90;4.38;;;4.00;99.90;;;;;;5051730;28;20455;-60
2023/04/27 00:50:51;;;;;;;9.98;3.65;;;4.00;99.90;;;;;;5053040;28;20040;-60
2023/04/27 00:53:18;;;;;;;8.43;4.30;;;4.10;99.90;;;;;;5053916;28;20041;-60
2023/04/27 00:55:44;;;;;;;7.07;3.45;;;4.10;99.90;;;;;;5051721;28;20041;-60
2023/04/27 00:58:10;;;;;;;7.72;3.60;;;4.10;99.90;;;;;;5052844;28;20040;-60
2023/04/27 01:00:36;;;;;;;11.00;4.25;;;4.10;99.90;;;;;;5052332;28;20040;-60
2023/04/27 01:03:03;;;;;;;8.63;4.20;;;4.20;99.90;;;;;;5052355;28;20378;-60
2023/04/27 01:05:29;;;;;;;8.40;4.07;;;4.20;99.90;;;;;;5052198;28;20481;-60
2023/04/27 01:07:55;;;;;;;7.22;4.05;;;4.10;99.90;;;;;;5053953;28;20423;-60
2023/04/27 01:10:21;;;;;;;8.85;3.95;;;4.10;99.90;;;;;;5051168;28;20053;-60
2023/04/27 01:12:46;;;;;;;9.55;4.07;;;4.10;99.90;;;;;;5053871;28;20486;-60
2023/04/27 01:15:12;;;;;;;7.70;3.53;;;4.10;99.90;;;;;;5035348;28;20044;-60
2023/04/27 01:17:38;;;;;;;7.50;3.83;;;4.00;99.90;;;;;;5051296;28;20029;-60
2023/04/27 01:20:06;;;;;;;8.25;4.30;;;4.00;99.90;;;;;;5052470;28;20494;-60
2023/04/27 01:22:32;;;;;;;7.00;3.55;;;3.90;99.90;;;;;;5052063;28;20116;-60
2023/04/27 01:24:57;;;;;;;7.82;4.00;;;3.90;99.90;;;;;;5052769;28;20124;-60
2023/04/27 01:27:23;;;;;;;9.55;3.88;;;3.80;99.90;;;;;;5053081;28;20063;-59
2023/04/27 01:29:49;;;;;;;9.02;4.72;;;3.80;99.90;;;;;;5052644;28;20032;-60
2023/04/27 01:32:15;;;;;;;7.80;4.22;;;3.70;99.90;;;;;;5051398;28;20572;-60
2023/04/27 01:34:41;;;;;;;8.50;4.10;;;3.70;99.90;;;;;;5053208;28;20114;-60
2023/04/27 01:37:06;;;;;;;9.25;4.35;;;3.70;99.90;;;;;;5052906;28;20110;-60
2023/04/27 01:39:32;;;;;;;9.35;4.88;;;3.70;99.90;;;;;;5051300;28;20041;-60
2023/04/27 01:41:58;;;;;;;8.50;4.28;;;3.70;99.90;;;;;;5052363;28;20494;-60
2023/04/27 01:44:23;;;;;;;7.85;4.63;;;3.70;99.90;;;;;;5051671;28;20084;-60
2023/04/27 01:46:49;;;;;;;9.40;4.65;;;3.70;99.90;;;;;;5052027;28;20037;-60
2023/04/27 01:49:15;;;;;;;8.85;4.00;;;3.70;99.90;;;;;;5051847;28;20504;-60
2023/04/27 01:51:41;;;;;;;8.02;4.15;;;3.70;99.90;;;;;;5051119;28;20427;-60
2023/04/27 01:54:06;;;;;;;9.65;4.65;;;3.70;99.90;;;;;;5053085;28;20120;-60
2023/04/27 01:56:32;;;;;;;6.80;4.07;;;3.70;99.90;;;;;;5051048;28;20071;-60
2023/04/27 01:58:58;;;;;;;8.07;4.18;;;3.70;99.90;;;;;;5052064;28;20037;-60
2023/04/27 02:01:23;;;;;;;10.32;4.15;;;3.70;99.90;;;;;;5050810;28;20041;-60
2023/04/27 02:03:49;;;;;;;8.15;4.25;;;3.70;99.90;;;;;;5051701;28;20054;-60
2023/04/27 02:06:15;;;;;;;9.30;4.20;;;3.70;99.90;;;;;;5050993;28;20370;-60
2023/04/27 02:08:41;;;;;;;7.13;3.95;;;3.60;99.90;;;;;;5052289;28;20048;-60
2023/04/27 02:11:06;;;;;;;7.32;4.25;;;3.70;99.90;;;;;;5051707;28;20477;-59
2023/04/27 02:13:32;;;;;;;8.85;4.80;;;3.70;99.90;;;;;;5050520;28;20040;-60
2023/04/27 02:16:00;;;;;;;9.82;4.18;;;3.60;99.90;;;;;;5052631;28;20037;-60
2023/04/27 02:18:26;;;;;;;8.13;4.15;;;3.60;99.90;;;;;;5049619;28;20056;-60
2023/04/27 02:20:52;;;;;;;7.70;4.22;;;3.70;99.90;;;;;;5050480;28;20086;-60
2023/04/27 02:23:18;;;;;;;9.13;4.00;;;3.70;99.90;;;;;;5051046;28;20036;-60
2023/04/27 02:25:45;;;;;;;7.55;4.80;;;3.80;99.90;;;;;;5051265;28;20399;-60
2023/04/27 02:28:12;;;;;;;8.82;4.63;;;3.80;99.90;;;;;;5052055;28;20041;-60
2023/04/27 02:30:38;;;;;;;7.60;4.53;;;3.80;99.90;;;;;;5050903;28;20032;-60
2023/04/27 02:33:04;;;;;;;8.57;4.53;;;3.80;99.90;;;;;;5052580;28;20041;-60
2023/04/27 02:35:32;;;;;;;8.32;4.13;;;3.90;99.90;;;;;;5049648;28;20082;-60
2023/04/27 02:37:57;;;;;;;9.77;5.30;;;3.80;99.90;;;;;;5051795;28;20041;-60
2023/04/27 02:40:23;;;;;;;10.07;4.82;;;3.80;99.90;;;;;;5050519;28;20067;-60
2023/04/27 02:42:49;;;;;;;7.78;4.63;;;3.80;99.90;;;;;;5051767;28;20036;-60
2023/04/27 02:45:15;;;;;;;8.65;4.55;;;3.90;99.90;;;;;;5050638;28;20071;-60
2023/04/27 02:47:41;;;;;;;8.13;4.53;;;3.90;99.90;;;;;;5050444;28;20169;-60
2023/04/27 02:50:07;;;;;;;10.32;5.10;;;3.90;99.90;;;;;;5050068;28;20041;-60
2023/04/27 02:52:33;;;;;;;8.55;4.70;;;3.90;99.90;;;;;;5051491;28;20068;-60
2023/04/27 02:54:58;;;;;;;9.23;5.35;;;4.00;99.90;;;;;;5066949;28;20088;-60
2023/04/27 02:57:24;;;;;;;12.27;5.30;;;4.00;99.90;;;;;;5033813;28;20043;-60
2023/04/27 02:59:50;;;;;;;10.13;4.82;;;4.00;99.90;;;;;;5052292;28;20040;-60
2023/04/27 03:02:15;;;;;;;8.80;5.40;;;4.10;99.90;;;;;;5049973;28;20473;-60
2023/04/27 03:04:42;;;;;;;8.27;4.85;;;4.10;99.90;;;;;;5051728;28;20482;-60
2023/04/27 03:07:08;;;;;;;10.05;5.25;;;4.10;99.90;;;;;;5052003;28;20055;-60
2023/04/27 03:09:34;;;;;;;9.90;5.63;;;4.10;99.90;;;;;;5050308;28;20052;-60
2023/04/27 03:12:00;;;;;;;11.25;5.10;;;4.10;99.90;;;;;;5051737;28;20536;-60
2023/04/27 03:14:25;;;;;;;10.27;5.25;;;4.10;99.90;;;;;;5050253;28;20040;-60
2023/04/27 03:16:51;;;;;;;8.13;4.45;;;4.10;99.90;;;;;;5051215;28;20393;-60
2023/04/27 03:19:17;;;;;;;11.95;5.47;;;4.10;99.90;;;;;;5051529;28;20025;-60
2023/04/27 03:21:43;;;;;;;9.48;5.57;;;4.10;99.90;;;;;;5051566;28;20547;-60
2023/04/27 03:24:08;;;;;;;12.68;5.50;;;4.10;99.90;;;;;;5049911;28;20077;-60
2023/04/27 03:26:34;;;;;;;8.70;5.70;;;4.00;99.90;;;;;;5050009;28;20045;-60
2023/04/27 03:29:00;;;;;;;13.07;5.43;;;4.00;99.90;;;;;;5050640;28;20037;-60
2023/04/27 03:31:26;;;;;;;12.23;6.75;;;3.90;99.90;;;;;;5032604;28;20041;-60
2023/04/27 03:33:51;;;;;;;10.32;5.57;;;3.90;99.90;;;;;;5033788;28;20397;-60
2023/04/27 03:36:22;;;;;;;10.27;5.50;;;3.80;99.90;;;;;;5051284;28;20060;-60
2023/04/27 03:38:48;;;;;;;10.80;5.07;;;3.70;99.90;;;;;;5049785;28;20037;-60
2023/04/27 03:41:13;;;;;;;7.95;4.35;;;3.70;99.90;;;;;;5050802;28;20501;-60
2023/04/27 03:43:39;;;;;;;14.90;6.53;;;3.70;99.90;;;;;;5049976;28;20049;-60
2023/04/27 03:46:05;;;;;;;10.63;5.57;;;3.60;99.90;;;;;;5050779;28;20044;-60
2023/04/27 03:48:30;;;;;;;9.93;4.70;;;3.60;99.90;;;;;;5049475;28;20125;-60
2023/04/27 03:50:56;;;;;;;10.18;5.35;;;3.50;99.90;;;;;;5050557;28;20051;-60
2023/04/27 03:53:21;;;;;;;8.15;4.53;;;3.60;99.90;;;;;;5050291;28;20045;-60
2023/04/27 03:55:47;;;;;;;10.38;5.03;;;3.50;99.90;;;;;;5050326;28;20485;-60
2023/04/27 03:58:13;;;;;;;7.88;4.43;;;3.50;99.90;;;;;;5049613;28;20393;-60
2023/04/27 04:00:39;;;;;;;9.73;4.72;;;3.40;99.90;;;;;;5053361;28;20044;-61
2023/04/27 04:03:06;;;;;;;9.48;5.25;;;3.40;99.90;;;;;;5054228;28;20044;-60
2023/04/27 04:05:32;;;;;;;7.40;4.35;;;3.40;99.90;;;;;;5053757;28;20087;-60
2023/04/27 04:07:57;;;;;;;7.55;4.80;;;3.40;99.90;;;;;;5053576;28;20072;-60
2023/04/27 04:10:24;;;;;;;9.30;5.22;;;3.40;99.90;;;;;;5052735;28;20079;-60
2023/04/27 04:12:50;;;;;;;8.95;5.20;;;3.40;99.90;;;;;;5053137;28;20044;-60
2023/04/27 04:15:16;;;;;;;9.02;5.40;;;3.40;99.90;;;;;;5036758;28;20044;-60
2023/04/27 04:17:41;;;;;;;12.48;6.10;;;3.40;99.90;;;;;;5053387;28;20098;-60
2023/04/27 04:20:09;;;;;;;9.63;6.03;;;3.30;99.90;;;;;;5036369;28;20394;-60
2023/04/27 04:22:35;;;;;;;10.27;5.80;;;3.30;99.90;;;;;;5053022;28;20045;-60
2023/04/27 04:25:03;;;;;;;10.05;5.10;;;3.30;99.90;;;;;;5055091;28;20033;-60
2023/04/27 04:27:30;;;;;;;9.90;5.60;;;3.30;99.90;;;;;;5052276;28;20048;-60
2023/04/27 04:29:56;;;;;;;11.82;5.80;;;3.20;99.90;;;;;;5053204;28;20045;-60
2023/04/27 04:32:21;;;;;;;11.63;6.18;;;3.20;99.90;;;;;;5052534;28;20047;-60
2023/04/27 04:34:50;;;;;;;10.18;5.97;;;3.20;99.90;;;;;;5035791;28;20037;-60
2023/04/27 04:37:17;;;;;;;9.18;4.65;;;3.20;99.90;;;;;;5054620;28;20128;-60
2023/04/27 04:39:43;;;;;;;9.13;4.97;;;3.10;99.90;;;;;;5053332;28;20044;-60
2023/04/27 04:42:09;;;;;;;7.93;4.75;;;3.10;99.90;;;;;;5052374;28;20037;-59
2023/04/27 04:44:35;;;;;;;8.75;5.13;;;3.10;99.90;;;;;;5052876;28;20047;-60
2023/04/27 04:47:01;;;;;;;7.97;4.88;;;3.20;99.90;;;;;;5053154;28;20052;-60
2023/04/27 04:49:26;;;;;;;8.48;4.72;;;3.20;99.90;;;;;;5051630;28;20036;-60
2023/04/27 04:51:52;;;;;;;8.25;4.55;;;3.20;99.90;;;;;;5054364;28;20037;-60
2023/04/27 04:54:18;;;;;;;10.82;4.93;;;3.10;99.90;;;;;;5053562;28;20110;-60
2023/04/27 04:56:43;;;;;;;10.43;4.82;;;3.10;99.90;;;;;;5053497;28;20387;-60
2023/04/27 04:59:09;;;;;;;9.00;5.30;;;3.10;99.90;;;;;;5052511;28;20044;-60
2023/04/27 05:01:35;;;;;;;9.52;5.40;;;3.20;99.90;;;;;;5034990;28;20469;-60
2023/04/27 05:04:01;;;;;;;8.15;4.82;;;3.20;99.90;;;;;;5052679;28;20049;-60
2023/04/27 05:06:26;;;;;;;11.13;5.20;;;3.20;99.90;;;;;;5051768;28;20040;-60
2023/04/27 05:08:52;;;;;;;10.30;5.25;;;3.20;99.90;;;;;;5051621;28;20064;-60
2023/04/27 05:11:18;;;;;;;11.82;5.15;;;3.20;99.90;;;;;;5051866;28;20047;-60
2023/04/27 05:13:43;;;;;;;8.95;4.68;;;3.20;99.90;;;;;;5053588;28;20124;-60
2023/04/27 05:16:09;;;;;;;9.15;5.32;;;3.20;99.90;;;;;;5051929;28;20098;-60
2023/04/27 05:18:35;;;;;;;10.63;5.20;;;3.30;99.90;;;;;;5035142;28;20044;-60
2023/04/27 05:21:01;;;;;;;11.57;5.47;;;3.30;99.90;;;;;;5052711;28;20048;-60
2023/04/27 05:23:27;;;;;;;8.40;4.70;;;3.30;99.90;;;;;;5052513;28;20120;-60
2023/04/27 05:25:52;;;;;;;11.27;5.82;;;3.40;99.90;;;;;;5053645;28;20120;-60
2023/04/27 05:28:18;;;;;;;9.25;4.95;;;3.40;99.90;;;;;;5035399;28;20037;-60
2023/04/27 05:30:44;;;;;;;10.85;4.93;;;3.40;99.90;;;;;;5050891;28;20041;-60
2023/04/27 05:33:09;;;;;;;11.18;4.93;;;3.50;99.90;;;;;;5053141;28;20036;-60
2023/04/27 05:35:35;;;;;;;10.45;5.93;;;3.40;99.90;;;;;;5051497;28;20049;-60
2023/04/27 05:38:01;;;;;;;15.68;5.25;;;3.50;99.90;;;;;;5052733;28;20124;-60
2023/04/27 05:40:27;;;;;;;10.77;6.07;;;3.50;99.90;;;;;;5051521;28;20076;-60
2023/04/27 05:42:53;;;;;;;9.82;5.40;;;3.60;99.90;;;;;;5051875;28;20033;-60
2023/04/27 05:45:19;;;;;;;9.23;5.80;;;3.70;99.90;;;;;;5052202;28;20052;-60
2023/04/27 05:47:45;;;;;;;9.23;5.70;;;3.80;99.90;;;;;;5052021;28;20049;-60
2023/04/27 05:50:10;;;;;;;9.88;5.80;;;3.90;99.90;;;;;;5053476;28;20040;-60
2023/04/27 05:52:37;;;;;;;8.05;4.63;;;4.00;99.90;;;;;;5050530;28;20120;-61
2023/04/27 05:55:03;;;;;;;9.68;6.20;;;4.10;99.90;;;;;;5051728;28;20041;-60
2023/04/27 05:57:30;;;;;;;12.25;6.60;;;4.20;99.90;;;;;;5034727;28;20047;-60
2023/04/27 05:59:55;;;;;;;13.18;7.05;;;4.40;99.90;;;;;;5052317;28;20049;-60
2023/04/27 06:02:21;;;;;;;20.02;10.43;;;4.50;99.90;;;;;;5051013;28;20375;-60
2023/04/27 06:04:47;;;;;;;28.20;12.43;;;4.60;99.90;;;;;;5067928;28;20398;-60
2023/04/27 06:07:14;;;;;;;32.25;13.85;;;4.70;99.90;;;;;;5034299;28;20037;-60
2023/04/27 06:09:41;;;;;;;43.42;16.65;;;4.80;99.90;;;;;;5050560;28;20136;-60
2023/04/27 06:12:07;;;;;;;57.45;22.20;;;5.00;99.90;;;;;;5050963;28;20052;-60
2023/04/27 06:14:35;;;;;;;50.90;21.90;;;5.10;99.90;;;;;;5052111;28;20048;-60
2023/04/27 06:17:01;;;;;;;42.03;18.40;;;5.20;99.90;;;;;;5051478;28;20414;-60
2023/04/27 06:19:27;;;;;;;46.60;18.42;;;5.40;99.90;;;;;;5049961;28;20037;-60
2023/04/27 06:21:53;;;;;;;43.78;17.17;;;5.50;99.90;;;;;;5052503;28;20544;-60
2023/04/27 06:24:20;;;;;;;38.05;15.68;;;5.60;99.90;;;;;;5050060;28;20051;-60
2023/04/27 06:26:45;;;;;;;27.10;13.68;;;5.80;99.90;;;;;;5034243;28;20040;-60
2023/04/27 06:29:11;;;;;;;30.38;14.80;;;5.90;99.90;;;;;;5034682;28;20041;-60
2023/04/27 06:31:37;;;;;;;31.33;15.43;;;6.00;99.90;;;;;;5033827;28;20037;-60
2023/04/27 06:34:03;;;;;;;33.17;13.70;;;6.10;99.90;;;;;;5050235;28;20464;-60
2023/04/27 06:36:28;;;;;;;31.95;14.07;;;6.20;99.90;;;;;;5051945;28;20036;-60
2023/04/27 06:38:55;;;;;;;30.60;14.63;;;6.40;99.90;;;;;;5051174;28;20047;-60
2023/04/27 06:41:22;;;;;;;31.98;14.93;;;6.50;99.90;;;;;;5033429;28;20427;-60
2023/04/27 06:43:47;;;;;;;28.48;12.75;;;6.70;99.90;;;;;;5051920;28;20052;-60
2023/04/27 06:46:13;;;;;;;24.50;11.63;;;6.80;99.90;;;;;;5052089;28;20498;-60
2023/04/27 06:48:39;;;;;;;20.35;10.27;;;6.90;99.90;;;;;;5050970;28;20045;-60
2023/04/27 06:51:05;;;;;;;26.63;9.65;;;7.00;99.90;;;;;;5052356;28;20047;-60
2023/04/27 06:53:31;;;;;;;14.68;8.02;;;7.10;99.90;;;;;;5051555;28;20421;-60
2023/04/27 06:55:57;;;;;;;17.30;9.10;;;7.20;99.90;;;;;;5049919;28;20032;-60
2023/04/27 06:58:22;;;;;;;13.77;8.02;;;7.40;99.90;;;;;;5051408;28;20371;-60
2023/04/27 07:00:48;;;;;;;13.52;8.20;;;7.40;99.90;;;;;;5052345;28;20044;-60
2023/04/27 07:03:14;;;;;;;14.70;6.85;;;7.60;99.90;;;;;;5050218;28;20041;-60
2023/04/27 07:05:40;;;;;;;10.10;6.82;;;7.70;99.90;;;;;;5050387;28;20053;-60
2023/04/27 07:08:06;;;;;;;9.88;6.15;;;7.70;99.90;;;;;;5051134;28;20033;-60
2023/04/27 07:10:32;;;;;;;10.68;5.93;;;7.80;99.90;;;;;;5048500;28;20048;-60
2023/04/27 07:12:57;;;;;;;13.88;6.25;;;7.90;99.90;;;;;;5046746;28;20049;-60
2023/04/27 07:15:23;;;;;;;8.13;3.85;;;8.00;99.90;;;;;;5051054;28;20029;-60
2023/04/27 07:17:54;;;;;;;8.63;3.67;;;8.00;99.90;;;;;;5069143;28;20454;-60
2023/04/27 07:20:20;;;;;;;6.13;2.65;;;8.00;99.90;;;;;;5051769;28;20120;-60
2023/04/27 07:22:46;;;;;;;5.10;2.38;;;8.10;99.90;;;;;;5033250;28;20124;-60
2023/04/27 07:25:12;;;;;;;6.95;2.75;;;8.10;99.90;;;;;;5051878;28;20116;-60
2023/04/27 07:27:38;;;;;;;5.10;2.65;;;8.20;99.90;;;;;;5029720;28;20041;-59
2023/04/27 07:30:07;;;;;;;5.10;2.38;;;8.30;99.90;;;;;;5048104;28;20753;-60
2023/04/27 07:32:33;;;;;;;6.35;2.50;;;8.40;99.90;;;;;;5047976;28;20412;-59
2023/04/27 07:34:59;;;;;;;5.22;2.33;;;8.50;99.90;;;;;;5049677;28;20041;-59
2023/04/27 07:37:25;;;;;;;8.93;3.05;;;8.60;99.90;;;;;;5051086;28;20045;-59
2023/04/27 07:39:52;;;;;;;7.10;2.63;;;8.60;99.90;;;;;;5051245;28;20044;-60
2023/04/27 07:42:18;;;;;;;4.68;2.05;;;8.70;99.90;;;;;;5035029;28;20036;-60
2023/04/27 07:44:44;;;;;;;5.18;2.20;;;8.70;99.90;;;;;;5049444;28;20505;-59
2023/04/27 07:47:09;;;;;;;5.68;2.83;;;8.80;99.90;;;;;;5051982;28;20044;-60
2023/04/27 07:49:36;;;;;;;4.78;2.45;;;8.90;99.90;;;;;;5048430;28;20106;-60
2023/04/27 07:52:03;;;;;;;5.57;2.80;;;8.90;99.90;;;;;;5047937;28;20099;-60
2023/04/27 07:54:29;;;;;;;5.10;2.53;;;9.00;99.90;;;;;;5050091;28;20044;-60
2023/04/27 07:56:55;;;;;;;5.88;2.47;;;9.10;99.90;;;;;;5051484;28;20047;-59
2023/04/27 07:59:21;;;;;;;6.10;2.50;;;9.10;99.90;;;;;;5049377;28;20119;-60
2023/04/27 08:01:46;;;;;;;8.13;2.90;;;9.10;99.90;;;;;;5050995;28;20044;-60
2023/04/27 08:04:12;;;;;;;6.45;2.67;;;9.10;99.90;;;;;;5050111;28;20062;-60
2023/04/27 08:06:38;;;;;;;7.00;2.47;;;9.20;99.90;;;;;;5033633;28;20041;-60
2023/04/27 08:09:04;;;;;;;6.68;2.38;;;9.30;99.90;;;;;;5050194;28;20132;-60
2023/04/27 08:11:30;;;;;;;9.32;3.15;;;9.40;99.90;;;;;;5050726;28;20127;-60
2023/04/27 08:13:56;;;;;;;5.72;2.67;;;9.60;99.90;;;;;;5050252;28;20036;-60
2023/04/27 08:16:22;;;;;;;5.72;2.75;;;9.80;99.90;;;;;;5050935;28;20037;-60
2023/04/27 08:18:49;;;;;;;5.47;2.50;;;9.90;99.90;;;;;;5049809;28;20078;-60
2023/04/27 08:21:15;;;;;;;8.25;3.20;;;9.80;99.90;;;;;;5051613;28;20049;-60
2023/04/27 08:23:41;;;;;;;4.88;2.72;;;9.80;99.90;;;;;;5050361;28;20053;-60
2023/04/27 08:26:07;;;;;;;7.53;2.38;;;9.80;99.90;;;;;;5032697;28;20037;-60
2023/04/27 08:28:32;;;;;;;5.82;2.58;;;9.80;99.90;;;;;;5050121;28;20098;-60
2023/04/27 08:30:58;;;;;;;6.22;2.60;;;9.90;99.90;;;;;;5033947;28;20041;-61
2023/04/27 08:33:24;;;;;;;7.03;2.90;;;9.80;99.90;;;;;;5049448;28;20045;-60
2023/04/27 08:35:52;;;;;;;9.13;3.10;;;9.90;99.90;;;;;;5051053;28;20557;-60
2023/04/27 08:38:18;;;;;;;5.28;2.75;;;10.00;99.90;;;;;;5049662;28;20049;-60
2023/04/27 08:40:43;;;;;;;6.72;2.75;;;10.00;99.90;;;;;;5049471;28;20044;-60
2023/04/27 08:43:10;;;;;;;6.72;2.47;;;10.10;99.90;;;;;;5051328;28;20051;-60
2023/04/27 08:45:36;;;;;;;4.65;1.90;;;10.20;99.90;;;;;;5047645;28;20040;-60
2023/04/27 08:48:02;;;;;;;5.60;2.70;;;10.20;99.90;;;;;;5030883;28;20051;-60
2023/04/27 08:50:28;;;;;;;4.20;1.98;;;10.40;99.90;;;;;;5049287;28;20049;-60
2023/04/27 08:52:54;;;;;;;5.60;2.40;;;10.40;99.90;;;;;;5050284;28;20086;-60
2023/04/27 08:55:20;;;;;;;6.07;2.35;;;10.40;99.90;;;;;;5031804;28;20049;-60
2023/04/27 08:58:00;;;;;;;5.75;2.45;;;10.50;99.90;;;;;;5033519;28;20037;-60
2023/04/27 09:00:36;;;;;;;5.93;2.50;;;10.50;97.60;;;;;;5046048;28;20033;-60
2023/04/27 09:03:02;;;;;;;7.50;2.90;;;10.40;98.50;;;;;;5050050;28;20080;-60
2023/04/27 09:05:29;;;;;;;6.40;2.67;;;10.50;98.80;;;;;;5049395;28;20060;-60
2023/04/27 09:08:00;;;;;;;4.85;2.65;;;10.60;99.20;;;;;;5031892;28;20037;-60
2023/04/27 09:10:28;;;;;;;7.05;2.90;;;10.60;98.20;;;;;;5032000;28;20065;-59
2023/04/27 09:12:55;;;;;;;5.95;2.38;;;10.60;98.30;;;;;;5048984;28;20052;-60
2023/04/27 09:15:21;;;;;;;7.18;3.95;;;10.60;98.00;;;;;;5047889;28;20059;-59
2023/04/27 09:17:54;;;;;;;10.90;6.18;;;10.70;97.90;;;;;;5048865;28;20044;-60
2023/04/27 09:20:19;;;;;;;5.82;2.90;;;10.60;96.50;;;;;;5050557;28;20033;-61
2023/04/27 09:22:51;;;;;;;6.03;2.67;;;10.70;95.90;;;;;;5049396;28;20048;-61
2023/04/27 09:25:23;;;;;;;6.32;2.63;;;10.70;96.30;;;;;;5050350;28;20047;-61
2023/04/27 09:27:49;;;;;;;6.38;3.90;;;10.90;95.90;;;;;;5049032;28;20049;-60
2023/04/27 09:30:15;;;;;;;5.85;3.10;;;11.00;96.30;;;;;;5050299;28;20535;-60
2023/04/27 09:32:59;;;;;;;8.10;3.47;;;11.10;96.10;;;;;;5053109;28;20382;-59
2023/04/27 09:35:35;;;;;;;7.22;2.75;;;11.10;94.70;;;;;;5051304;28;20239;-60
2023/04/27 09:38:01;;;;;;;4.70;2.33;;;11.10;95.20;;;;;;5046798;28;20037;-61
2023/04/27 09:40:30;;;;;;;8.02;3.20;;;11.10;95.40;;;;;;5035165;28;20339;-60
2023/04/27 09:43:00;;;;;;;7.80;3.22;;;11.10;94.90;;;;;;5034785;28;20036;-60
2023/04/27 09:45:26;;;;;;;8.48;4.07;;;11.10;94.80;;;;;;5051695;28;20045;-60
2023/04/27 09:47:52;;;;;;;8.63;3.92;;;11.10;95.00;;;;;;5029546;28;20064;-60
2023/04/27 09:50:18;;;;;;;7.80;3.20;;;11.10;94.90;;;;;;5040162;28;20044;-60
2023/04/27 09:52:45;;;;;;;7.20;3.60;;;11.10;94.50;;;;;;5051485;28;20486;-60
2023/04/27 09:55:36;;;;;;;5.75;2.80;;;11.10;93.70;;;;;;5051753;28;20079;-60
2023/04/27 09:58:28;;;;;;;5.43;2.80;;;11.20;94.50;;;;;;5051185;28;20450;-60
2023/04/27 10:01:03;;;;;;;7.65;3.70;;;11.50;93.20;;;;;;5053254;28;20063;-60
2023/04/27 10:03:57;;;;;;;9.68;3.75;;;11.70;93.80;;;;;;5052467;28;20033;-60
2023/04/27 10:06:41;;;;;;;11.30;3.45;;;12.00;93.60;;;;;;5051142;28;20047;-60
2023/04/27 10:09:08;;;;;;;6.60;3.88;;;12.20;93.10;;;;;;5051747;28;20067;-61
2023/04/27 10:11:46;;;;;;;6.70;3.08;;;12.10;93.60;;;;;;5050439;28;20047;-61
2023/04/27 10:14:17;;;;;;;5.95;3.03;;;12.00;92.80;;;;;;5034934;28;20048;-61
2023/04/27 10:16:54;;;;;;;6.47;3.25;;;12.00;93.20;;;;;;5051519;28;20040;-60
2023/04/27 10:19:21;;;;;;;6.53;3.42;;;12.00;93.00;;;;;;5051476;28;20040;-60
2023/04/27 10:21:59;;;;;;;8.25;3.30;;;12.00;93.50;;;;;;5052934;28;20033;-60
2023/04/27 10:24:42;;;;;;;5.35;2.85;;;11.90;92.60;;;;;;5067554;28;20094;-60
2023/04/27 10:27:11;;;;;;;8.02;4.28;;;11.90;92.80;;;;;;5051990;28;20048;-60
2023/04/27 10:29:40;;;;;;;6.45;3.10;;;12.00;92.70;;;;;;5050774;28;20497;-60
2023/04/27 10:32:11;;;;;;;6.32;3.20;;;12.10;92.10;;;;;;5051737;28;20037;-60
2023/04/27 10:34:44;;;;;;;8.40;3.80;;;12.10;91.40;;;;;;5050608;28;20051;-60
2023/04/27 10:37:10;;;;;;;6.90;3.53;;;12.10;91.80;;;;;;5067892;28;20120;-60
2023/04/27 10:39:38;;;;;;;6.85;4.00;;;11.90;91.70;;;;;;5051229;28;20041;-61
2023/04/27 10:42:05;;;;;;;8.73;4.75;;;11.70;91.10;;;;;;5034615;28;20332;-61
2023/04/27 10:44:32;;;;;;;6.53;3.63;;;11.30;90.90;;;;;;5033904;28;20046;-61
2023/04/27 10:47:00;;;;;;;19.70;10.55;;;11.20;91.00;;;;;;5050143;28;20044;-61
2023/04/27 10:49:28;;;;;;;17.95;8.95;;;11.10;91.50;;;;;;5051636;28;20033;-61
2023/04/27 10:51:57;;;;;;;7.05;4.60;;;11.00;91.90;;;;;;5050915;28;20501;-61
2023/04/27 10:54:27;;;;;;;13.45;8.88;;;10.90;92.60;;;;;;5050908;28;20121;-61
2023/04/27 10:56:53;;;;;;;19.15;13.88;;;10.90;92.80;;;;;;5034117;28;20029;-61
2023/04/27 10:59:20;;;;;;;11.23;6.65;;;10.80;93.00;;;;;;5034198;28;20063;-61
2023/04/27 11:01:50;;;;;;;22.33;16.67;;;10.80;93.10;;;;;;5049920;28;20079;-61
2023/04/27 11:04:17;;;;;;;40.78;29.60;;;10.70;93.10;;;;;;5050466;28;20498;-61
2023/04/27 11:06:44;;;;;;;12.15;8.05;;;10.70;93.20;;;;;;5034130;28;20041;-61
2023/04/27 11:09:10;;;;;;;7.25;4.72;;;10.70;93.60;;;;;;5049209;28;20061;-61
2023/04/27 11:11:36;;;;;;;10.80;5.63;;;10.70;93.90;;;;;;5051558;28;20099;-60
2023/04/27 11:14:02;;;;;;;7.03;4.40;;;10.70;93.90;;;;;;5050783;28;20041;-60
2023/04/27 11:16:29;;;;;;;9.02;4.78;;;10.60;93.90;;;;;;5049381;28;20041;-61
2023/04/27 11:18:55;;;;;;;13.05;7.43;;;10.60;93.70;;;;;;5050608;28;20517;-61
2023/04/27 11:21:21;;;;;;;22.80;16.00;;;10.60;93.70;;;;;;5049476;28;20040;-61
2023/04/27 11:23:47;;;;;;;12.43;9.48;;;10.60;94.30;;;;;;5052090;28;20047;-61
2023/04/27 11:26:14;;;;;;;9.43;3.88;;;10.60;94.60;;;;;;5052078;28;20041;-61
2023/04/27 11:28:45;;;;;;;9.05;3.53;;;10.60;94.40;;;;;;5050660;28;20635;-61
2023/04/27 11:31:10;;;;;;;8.73;3.28;;;10.60;94.30;;;;;;5034245;28;20397;-61
2023/04/27 11:33:38;;;;;;;8.63;3.72;;;10.50;94.30;;;;;;5049833;28;20056;-61
2023/04/27 11:36:15;;;;;;;6.85;3.17;;;10.50;95.30;;;;;;5050006;28;20416;-61
2023/04/27 11:38:41;;;;;;;6.53;3.03;;;10.40;98.50;;;;;;5050235;28;20092;-61
2023/04/27 11:41:07;;;;;;;6.32;3.38;;;10.30;99.90;;;;;;5050586;28;20041;-61
2023/04/27 11:43:33;;;;;;;8.40;3.65;;;10.30;99.90;;;;;;5050390;28;20033;-60
2023/04/27 11:46:09;;;;;;;6.25;3.45;;;10.30;99.90;;;;;;5033764;28;20045;-60
2023/04/27 11:48:39;;;;;;;8.55;3.20;;;10.30;99.90;;;;;;5033808;28;20342;-60
2023/04/27 11:51:06;;;;;;;10.20;3.95;;;10.30;99.90;;;;;;5033057;28;20041;-60
2023/04/27 11:53:37;;;;;;;7.47;3.60;;;10.30;99.90;;;;;;5033150;28;20120;-60
2023/04/27 11:56:04;;;;;;;7.65;3.40;;;10.40;99.90;;;;;;5033920;28;20119;-60
2023/04/27 11:58:33;;;;;;;9.10;3.63;;;10.40;99.90;;;;;;5050041;28;20033;-60
2023/04/27 12:01:00;;;;;;;6.80;2.80;;;10.50;99.90;;;;;;5050482;28;20033;-60
2023/04/27 12:03:27;;;;;;;8.27;3.08;;;10.60;99.90;;;;;;5049014;28;20121;-61
2023/04/27 12:05:53;;;;;;;7.85;3.63;;;10.70;99.90;;;;;;5051703;28;20100;-60
2023/04/27 12:08:19;;;;;;;7.57;3.53;;;10.60;99.90;;;;;;5051058;28;20474;-60
2023/04/27 12:10:45;;;;;;;9.18;3.75;;;10.60;99.90;;;;;;5049253;28;20057;-60
2023/04/27 12:13:13;;;;;;;7.38;3.45;;;10.70;99.90;;;;;;5050192;28;20037;-60
2023/04/27 12:15:39;;;;;;;6.72;3.40;;;10.80;99.90;;;;;;5049539;28;20540;-60
2023/04/27 12:18:05;;;;;;;7.10;2.85;;;10.90;99.90;;;;;;5066208;28;20037;-60
2023/04/27 12:20:31;;;;;;;6.38;3.10;;;11.10;99.90;;;;;;5033014;28;20040;-60
2023/04/27 12:22:57;;;;;;;7.43;3.40;;;11.20;99.90;;;;;;5053021;28;20401;-60
2023/04/27 12:25:23;;;;;;;7.25;3.50;;;11.40;99.90;;;;;;5052208;28;20095;-61
2023/04/27 12:27:49;;;;;;;7.68;3.53;;;11.50;99.90;;;;;;5053861;28;20393;-61
2023/04/27 12:30:16;;;;;;;5.93;3.33;;;11.60;99.80;;;;;;5054688;28;20128;-61
2023/04/27 12:32:42;;;;;;;10.38;3.40;;;11.70;99.60;;;;;;5052363;28;20045;-60
2023/04/27 12:35:09;;;;;;;8.50;4.05;;;11.90;99.80;;;;;;5053611;28;20048;-61
2023/04/27 12:37:35;;;;;;;6.70;3.30;;;11.90;99.00;;;;;;5052865;28;20099;-61
2023/04/27 12:40:05;;;;;;;6.80;3.60;;;12.00;98.10;;;;;;5052541;28;20044;-61
2023/04/27 12:42:31;;;;;;;6.03;3.42;;;12.10;97.90;;;;;;5052919;28;20048;-61
2023/04/27 12:44:57;;;;;;;7.50;3.20;;;12.10;97.40;;;;;;5053196;28;20037;-61
2023/04/27 12:47:23;;;;;;;12.82;5.82;;;12.30;97.20;;;;;;5053136;28;20048;-61
2023/04/27 12:49:49;;;;;;;7.95;3.72;;;12.30;96.90;;;;;;5053198;28;20405;-60